Time;durP1;ratioP1;P1;durP2;ratioP2;P2;SDS_P1;SDS_P2;PMS_P1;PMS_P2;Temp;Humidity;BMP_temperature;BMP_pressure;BME280_temperature;BME280_humidity;BME280_pressure;Samples;Min_cycle;Max_cycle;Signal;HPM_P1;HPM_P2
2022/11/11 00:00:49;;;;;;;31.57;14.00;;;;;;;7.50;97.05;100364.52;1741207;82;21014;-49
2022/11/11 00:03:16;;;;;;;23.45;13.28;;;;;;;7.50;97.03;100367.98;1741243;82;21025;-43
2022/11/11 00:05:42;;;;;;;28.10;14.40;;;;;;;7.53;97.04;100368.38;1741192;82;20997;-46
2022/11/11 00:08:07;;;;;;;23.40;13.65;;;;;;;7.55;96.95;100367.88;1741265;82;21641;-47
2022/11/11 00:10:33;;;;;;;27.87;14.18;;;;;;;7.57;96.81;100368.69;1741305;82;21022;-44
2022/11/11 00:13:00;;;;;;;30.15;14.40;;;;;;;7.59;96.94;100373.89;1741171;82;20962;-44
2022/11/11 00:15:28;;;;;;;26.23;13.65;;;;;;;7.61;96.70;100367.70;1741338;82;20974;-46
2022/11/11 00:26:12;;;;;;;24.75;13.40;;;;;;;7.58;96.70;100363.85;1741250;82;20978;-44
2022/11/11 00:28:38;;;;;;;24.43;14.05;;;;;;;7.57;96.35;100358.22;1711782;82;21005;-48
2022/11/11 00:31:06;;;;;;;23.57;14.58;;;;;;;7.56;96.29;100355.64;1741257;82;21026;-51
2022/11/11 00:33:33;;;;;;;28.17;14.05;;;;;;;7.55;96.27;100363.95;1741198;82;21901;-46
2022/11/11 00:35:59;;;;;;;23.18;13.43;;;;;;;7.49;96.29;100362.78;1741289;82;21009;-43
2022/11/11 00:41:12;;;;;;;30.32;14.75;;;;;;;7.42;96.24;100359.91;1741205;82;21026;-45
2022/11/11 00:43:38;;;;;;;28.92;14.50;;;;;;;7.39;96.62;100358.70;1739581;82;20967;-45
2022/11/11 00:51:32;;;;;;;34.13;14.47;;;;;;;7.30;96.94;100358.47;1741218;82;21021;-46
2022/11/11 00:53:58;;;;;;;27.93;13.83;;;;;;;7.26;97.10;100355.52;1741181;82;20994;-45
2022/11/11 00:56:24;;;;;;;23.40;13.28;;;;;;;7.28;96.95;100360.27;1741197;82;20982;-45
2022/11/11 00:58:50;;;;;;;26.73;13.43;;;;;;;7.27;96.83;100359.39;1741173;82;21002;-45
2022/11/11 01:01:16;;;;;;;25.17;12.85;;;;;;;7.27;97.01;100361.16;1741144;82;21009;-48
2022/11/11 01:03:42;;;;;;;27.90;13.90;;;;;;;7.25;96.94;100362.49;1741246;82;21527;-46
2022/11/11 01:06:11;;;;;;;22.48;13.25;;;;;;;7.26;97.00;100362.92;1741147;82;21030;-47
2022/11/11 01:08:37;;;;;;;23.00;12.35;;;;;;;7.26;97.07;100364.69;1741236;82;21030;-46
2022/11/11 01:11:03;;;;;;;28.52;13.28;;;;;;;7.27;97.25;100362.00;1741185;82;21341;-46
2022/11/11 01:13:32;;;;;;;24.20;13.58;;;;;;;7.28;97.41;100370.28;1741152;82;21014;-48
2022/11/11 01:16:05;;;;;;;26.27;13.20;;;;;;;7.30;97.45;100369.78;1741278;82;21018;-47
2022/11/11 01:18:31;;;;;;;20.70;11.88;;;;;;;7.32;97.34;100372.83;1741165;82;20982;-46
2022/11/11 01:21:08;;;;;;;25.60;13.10;;;;;;;7.34;97.35;100366.64;1741168;82;21053;-48
2022/11/11 01:23:37;;;;;;;30.77;13.60;;;;;;;7.36;97.08;100364.00;1740628;82;21001;-42
2022/11/11 01:26:08;;;;;;;26.77;13.15;;;;;;;7.36;97.16;100362.69;1731410;82;21038;-44
2022/11/11 01:28:34;;;;;;;23.80;12.73;;;;;;;7.33;97.20;100358.83;1728419;83;20994;-44
2022/11/11 01:31:08;;;;;;;26.35;13.22;;;;;;;7.32;97.17;100359.28;1731635;83;21054;-43
2022/11/11 01:33:34;;;;;;;28.55;14.10;;;;;;;7.32;97.37;100354.05;1731672;83;20974;-43
2022/11/11 01:36:19;;;;;;;29.92;13.38;;;;;;;7.35;97.38;100355.30;1731676;83;21543;-45
2022/11/11 01:38:51;;;;;;;28.52;12.70;;;;;;;7.28;97.54;100357.20;1730878;83;21030;-44
2022/11/11 01:41:33;;;;;;;25.82;13.32;;;;;;;7.26;97.67;100353.76;1731649;83;21873;-43
2022/11/11 01:44:13;;;;;;;27.60;13.90;;;;;;;7.28;97.59;100361.58;1731665;82;21349;-44
2022/11/11 01:46:59;;;;;;;24.45;13.15;;;;;;;7.32;97.24;100357.98;1731725;82;21538;-46
2022/11/11 01:49:45;;;;;;;27.30;14.40;;;;;;;7.30;97.44;100350.16;1729751;83;20990;-43
2022/11/11 01:52:36;;;;;;;31.07;14.45;;;;;;;7.33;97.89;100351.86;1731285;83;21010;-45
2022/11/11 01:55:18;;;;;;;27.85;13.72;;;;;;;7.38;97.95;100347.80;1731610;82;21046;-43
2022/11/11 01:57:55;;;;;;;26.12;13.88;;;;;;;7.38;97.57;100345.19;1731194;83;21571;-45
2022/11/11 02:00:21;;;;;;;24.12;12.68;;;;;;;7.34;97.57;100342.25;1731784;82;21429;-47
2022/11/11 02:02:54;;;;;;;29.30;13.13;;;;;;;7.36;97.59;100343.06;1731627;82;21034;-46
2022/11/11 02:05:41;;;;;;;25.37;13.15;;;;;;;7.37;97.39;100334.30;1731638;82;20990;-43
2022/11/11 02:08:12;;;;;;;29.82;13.85;;;;;;;7.38;97.53;100339.50;1731783;82;21050;-47
2022/11/11 02:10:42;;;;;;;30.62;13.62;;;;;;;7.36;97.44;100343.06;1730431;81;21511;-47
2022/11/11 02:15:58;;;;;;;32.13;14.03;;;;;;;7.36;97.35;100343.06;1731580;83;21018;-43
2022/11/11 02:18:24;;;;;;;27.52;13.88;;;;;;;7.32;97.17;100342.28;1731719;82;21464;-44
2022/11/11 02:20:50;;;;;;;29.43;13.03;;;;;;;7.30;97.20;100352.78;1731924;83;21489;-47
2022/11/11 02:23:27;;;;;;;27.75;13.58;;;;;;;7.28;97.04;100353.27;1731592;83;21027;-47
2022/11/11 02:25:55;;;;;;;26.93;13.32;;;;;;;7.25;97.36;100345.48;1739427;82;21022;-42
2022/11/11 02:28:24;;;;;;;25.52;14.03;;;;;;;7.24;97.31;100351.63;1741295;82;20974;-47
2022/11/11 02:30:50;;;;;;;24.10;13.38;;;;;;;7.22;97.55;100349.52;1711962;82;20990;-47
2022/11/11 02:33:16;;;;;;;26.00;13.40;;;;;;;7.19;97.51;100342.19;1741364;82;21037;-45
2022/11/11 02:35:57;;;;;;;28.05;13.13;;;;;;;7.18;97.53;100343.92;1741287;81;20994;-42
2022/11/11 02:38:25;;;;;;;27.25;13.22;;;;;;;7.14;97.62;100348.82;1741356;82;21005;-42
2022/11/11 02:43:33;;;;;;;22.58;13.90;;;;;;;7.23;97.69;100367.37;1796990;79;22263;-41
2022/11/11 02:46:03;;;;;;;21.30;12.33;;;;;;;7.18;97.44;100367.46;1803703;79;21053;-43
2022/11/11 02:48:30;;;;;;;25.62;13.05;;;;;;;7.17;97.34;100370.11;1796537;78;20994;-42
2022/11/11 02:50:57;;;;;;;26.68;12.75;;;;;;;7.16;97.39;100373.64;1791175;78;21093;-43
2022/11/11 02:53:24;;;;;;;26.23;13.20;;;;;;;7.16;97.39;100379.72;1810642;79;21010;-42
2022/11/11 02:55:50;;;;;;;30.80;12.53;;;;;;;7.17;97.25;100369.69;1821758;78;21054;-44
2022/11/11 02:58:16;;;;;;;22.05;12.78;;;;;;;7.15;97.08;100372.79;1815508;78;21015;-42
2022/11/11 03:00:42;;;;;;;23.65;12.65;;;;;;;7.14;97.13;100373.67;1811030;78;21519;-43
2022/11/11 03:03:10;;;;;;;24.52;12.50;;;;;;;7.14;97.32;100366.28;1813995;78;20984;-41
2022/11/11 03:05:36;;;;;;;28.90;12.65;;;;;;;7.15;97.69;100371.48;1820257;78;21519;-41
2022/11/11 03:08:02;;;;;;;24.00;12.78;;;;;;;7.17;97.53;100367.49;1791394;78;21016;-45
2022/11/11 03:10:29;;;;;;;21.65;11.95;;;;;;;7.19;97.45;100358.73;1804760;78;21002;-41
2022/11/11 03:12:56;;;;;;;28.65;12.78;;;;;;;7.18;97.74;100358.30;1810608;78;21007;-46
2022/11/11 03:15:23;;;;;;;23.47;12.82;;;;;;;7.17;97.89;100359.22;1821390;79;21053;-46
2022/11/11 03:17:50;;;;;;;25.92;12.65;;;;;;;7.15;97.80;100361.02;1819772;79;20987;-44
2022/11/11 03:23:07;;;;;;;24.60;12.25;;;;;;;7.15;97.88;100362.33;1772548;80;21009;-43
2022/11/11 03:25:40;;;;;;;28.70;12.80;;;;;;;7.18;97.84;100360.92;1773503;80;21129;-47
2022/11/11 03:28:10;;;;;;;30.72;13.50;;;;;;;7.20;97.71;100372.20;1770971;80;21017;-44
2022/11/11 03:30:38;;;;;;;26.07;12.13;;;;;;;7.17;97.88;100371.42;1772363;80;21057;-44
2022/11/11 03:33:07;;;;;;;26.80;12.00;;;;;;;7.18;97.56;100374.00;1781750;80;21042;-44
2022/11/11 03:35:33;;;;;;;24.95;12.55;;;;;;;7.18;97.52;100379.23;1763464;80;20971;-44
2022/11/11 03:40:46;;;;;;;29.52;12.82;;;;;;;7.16;97.47;100399.34;1765622;80;21014;-43
2022/11/11 03:43:14;;;;;;;26.45;12.73;;;;;;;7.17;97.45;100398.88;1763967;80;21018;-42
2022/11/11 03:45:42;;;;;;;22.25;12.43;;;;;;;7.18;97.34;100398.00;1774514;80;21058;-44
2022/11/11 03:48:09;;;;;;;27.07;13.20;;;;;;;7.16;97.08;100395.88;1766272;80;21065;-44
2022/11/11 03:50:35;;;;;;;26.73;12.88;;;;;;;7.14;97.46;100395.05;1775488;80;21476;-44
2022/11/11 03:53:01;;;;;;;21.02;12.70;;;;;;;7.12;97.28;100388.55;1768027;80;21054;-42
2022/11/11 03:55:33;;;;;;;28.67;12.60;;;;;;;7.12;97.21;100391.16;1775677;80;21118;-47
2022/11/11 03:57:59;;;;;;;26.27;12.80;;;;;;;7.09;97.34;100389.92;1765316;80;21086;-43
2022/11/11 04:00:28;;;;;;;31.95;14.05;;;;;;;7.10;97.46;100394.27;1772703;80;20971;-44
2022/11/11 04:11:26;;;;;;;25.23;13.13;;;;;;;7.17;97.66;100424.63;1770231;80;21006;-42
2022/11/11 04:16:44;;;;;;;22.00;11.88;;;;;;;7.22;97.42;100419.27;1805865;79;21473;-41
2022/11/11 04:21:54;;;;;;;18.57;11.88;;;;;;;7.20;97.26;100407.52;1761148;80;21086;-44
2022/11/11 04:27:12;;;;;;;25.30;12.95;;;;;;;7.23;97.54;100407.91;1766682;80;21011;-42
2022/11/11 04:29:39;;;;;;;21.52;12.10;;;;;;;7.22;97.19;100405.76;1782108;80;21057;-44
2022/11/11 04:35:00;;;;;;;24.75;11.93;;;;;;;7.24;97.39;100414.42;1764494;80;22164;-42
2022/11/11 04:37:32;;;;;;;29.00;12.98;;;;;;;7.23;97.18;100407.91;1767525;80;21058;-45
2022/11/11 04:42:43;;;;;;;24.85;12.25;;;;;;;7.21;96.93;100410.56;1776817;80;21003;-44
2022/11/11 04:45:30;;;;;;;20.88;12.10;;;;;;;7.20;96.79;100406.22;1779130;80;21030;-50
2022/11/11 04:47:56;;;;;;;23.98;12.03;;;;;;;7.19;96.91;100409.75;1764009;80;21002;-46
2022/11/11 04:50:24;;;;;;;23.38;12.65;;;;;;;7.19;96.77;100411.51;1761885;80;21467;-45
2022/11/11 04:52:50;;;;;;;23.10;11.90;;;;;;;7.18;96.59;100409.31;1763120;80;21014;-42
2022/11/11 04:58:01;;;;;;;21.17;11.40;;;;;;;7.08;97.03;100413.06;1769454;80;21039;-44
2022/11/11 05:00:27;;;;;;;22.73;12.05;;;;;;;7.08;96.96;100419.60;1765121;80;21003;-47
2022/11/11 05:03:14;;;;;;;26.75;11.75;;;;;;;7.07;97.03;100413.48;1764879;80;21012;-44
2022/11/11 05:11:21;;;;;;;25.13;12.23;;;;;;;7.00;97.15;100422.83;1766069;80;21045;-42
2022/11/11 05:22:14;;;;;;;30.37;13.55;;;;;;;6.97;97.11;100429.42;1772881;80;21110;-48
2022/11/11 05:27:24;;;;;;;30.65;13.85;;;;;;;6.92;97.34;100427.77;1758051;80;21485;-46
2022/11/11 05:29:49;;;;;;;26.82;13.88;;;;;;;6.90;97.32;100419.56;1777371;80;21469;-47
2022/11/11 05:32:17;;;;;;;27.45;14.60;;;;;;;6.90;97.32;100411.72;1761939;80;21522;-47
2022/11/11 05:34:43;;;;;;;36.23;14.50;;;;;;;6.90;97.31;100417.80;1767664;80;21049;-45
2022/11/11 05:37:09;;;;;;;23.22;14.13;;;;;;;6.91;97.25;100419.95;1778995;80;20980;-45
2022/11/11 05:39:35;;;;;;;28.67;13.75;;;;;;;6.89;97.33;100419.14;1783323;80;21535;-46
2022/11/11 05:42:00;;;;;;;27.50;13.20;;;;;;;6.89;97.24;100417.41;1772202;80;20994;-50
2022/11/11 05:44:26;;;;;;;24.37;13.05;;;;;;;6.88;97.29;100417.44;1774205;80;21042;-44
2022/11/11 05:46:52;;;;;;;21.25;12.33;;;;;;;6.82;97.48;100423.66;1771825;80;21019;-46
2022/11/11 05:49:18;;;;;;;35.03;16.73;;;;;;;6.87;97.51;100419.17;1767215;80;21023;-45
2022/11/11 05:51:45;;;;;;;51.08;26.20;;;;;;;6.89;97.39;100422.63;1737264;80;21019;-43
2022/11/11 05:54:12;;;;;;;24.80;14.13;;;;;;;6.92;97.15;100419.93;1770026;80;21053;-41
2022/11/11 05:56:38;;;;;;;26.52;12.95;;;;;;;6.91;97.22;100422.58;1765101;80;20970;-43
2022/11/11 05:59:05;;;;;;;29.20;13.58;;;;;;;6.92;97.46;100423.85;1775482;80;21013;-45
2022/11/11 06:01:34;;;;;;;27.45;13.40;;;;;;;6.95;97.21;100425.56;1762797;80;21054;-44
2022/11/11 06:03:59;;;;;;;28.17;13.80;;;;;;;6.96;97.32;100425.95;1767179;80;21567;-44
2022/11/11 06:06:25;;;;;;;27.20;13.45;;;;;;;6.99;97.15;100419.36;1764801;80;21045;-45
2022/11/11 06:08:50;;;;;;;23.65;13.43;;;;;;;6.95;96.97;100416.83;1768259;80;21487;-47
2022/11/11 06:11:17;;;;;;;26.62;14.38;;;;;;;6.99;97.04;100419.81;1776553;80;20983;-47
2022/11/11 06:13:42;;;;;;;26.02;13.32;;;;;;;6.92;97.24;100412.08;1771925;80;21054;-47
2022/11/11 06:16:08;;;;;;;22.13;13.48;;;;;;;6.95;97.33;100411.60;1766676;80;21103;-44
2022/11/11 06:18:34;;;;;;;20.37;12.53;;;;;;;6.99;97.09;100410.20;1779466;80;21000;-44
2022/11/11 06:21:00;;;;;;;29.30;13.20;;;;;;;6.99;97.02;100411.52;1762916;80;21047;-47
2022/11/11 06:23:28;;;;;;;25.77;13.65;;;;;;;7.03;97.05;100413.61;1762846;80;21014;-42
2022/11/11 06:26:11;;;;;;;;;;;;;;;7.01;96.90;100415.41;1772166;80;21538;-42
2022/11/11 06:28:45;;;;;;;31.00;13.53;;;;;;;7.02;96.83;100414.49;1772140;80;20397;-44
2022/11/11 06:31:15;;;;;;;23.22;13.00;;;;;;;7.07;96.72;100417.87;1735058;80;21019;-46
2022/11/11 06:33:41;;;;;;;26.33;13.08;;;;;;;7.09;96.56;100424.80;1758134;81;21002;-43
2022/11/11 06:36:11;;;;;;;25.10;12.25;;;;;;;7.10;96.38;100418.66;1760059;80;21483;-45
2022/11/11 06:38:36;;;;;;;23.90;13.10;;;;;;;7.13;96.44;100419.48;1769165;80;21014;-48
2022/11/11 06:41:02;;;;;;;25.77;12.75;;;;;;;7.17;96.30;100419.81;1770421;80;21005;-48
2022/11/11 06:43:28;;;;;;;30.92;13.22;;;;;;;7.21;96.34;100418.87;1775957;80;21504;-48
2022/11/11 06:45:55;;;;;;;28.12;12.45;;;;;;;7.23;96.18;100418.38;1769517;80;21047;-42
2022/11/11 06:48:24;;;;;;;23.30;12.70;;;;;;;7.26;96.22;100418.32;1769934;80;21574;-46
2022/11/11 06:50:50;;;;;;;21.75;12.18;;;;;;;7.32;96.09;100414.69;1763482;80;20982;-48
2022/11/11 06:53:18;;;;;;;21.33;12.05;;;;;;;7.35;95.91;100423.75;1772385;80;21554;-46
2022/11/11 06:55:44;;;;;;;24.52;12.78;;;;;;;7.35;95.96;100422.02;1770079;80;21002;-44
2022/11/11 06:58:17;;;;;;;24.72;11.85;;;;;;;7.41;95.97;100419.70;1759818;80;21030;-47
2022/11/11 07:00:45;;;;;;;29.27;12.53;;;;;;;7.35;96.08;100417.22;1779055;80;21101;-43
2022/11/11 07:03:14;;;;;;;19.73;11.70;;;;;;;7.45;96.18;100422.19;1778586;80;21491;-47
2022/11/11 07:05:42;;;;;;;25.92;12.90;;;;;;;7.50;96.12;100426.02;1767566;80;21002;-43
2022/11/11 07:08:14;;;;;;;43.98;25.00;;;;;;;7.58;95.95;100427.98;1763101;80;21058;-44
2022/11/11 07:10:47;;;;;;;21.07;12.18;;;;;;;7.59;96.02;100419.70;1761381;80;20983;-47
2022/11/11 07:13:14;;;;;;;26.68;12.45;;;;;;;7.65;95.96;100415.61;1775144;80;21042;-43
2022/11/11 07:15:42;;;;;;;27.40;12.30;;;;;;;7.68;95.72;100421.62;1772767;80;21007;-46
2022/11/11 07:18:08;;;;;;;24.55;10.98;;;;;;;7.74;95.61;100407.98;1765142;80;21479;-43
2022/11/11 07:20:36;;;;;;;19.45;10.53;;;;;;;7.76;95.53;100404.41;1764988;80;21039;-44
2022/11/11 07:23:02;;;;;;;19.60;10.53;;;;;;;7.80;95.38;100404.73;1760181;81;20982;-43
2022/11/11 07:25:28;;;;;;;19.23;10.97;;;;;;;7.87;95.23;100406.75;1758403;80;20987;-46
2022/11/11 07:27:54;;;;;;;18.77;10.70;;;;;;;7.87;95.06;100402.82;1758052;80;21515;-43
2022/11/11 07:30:20;;;;;;;19.70;10.82;;;;;;;7.91;94.91;100410.15;1767828;80;21006;-46
2022/11/11 07:32:48;;;;;;;22.98;10.68;;;;;;;7.96;95.00;100405.66;1772992;80;20999;-49
2022/11/11 07:35:15;;;;;;;21.80;10.18;;;;;;;8.00;94.87;100413.83;1766565;80;20971;-47
2022/11/11 07:37:41;;;;;;;18.87;10.75;;;;;;;8.03;94.78;100404.59;1765292;80;21046;-46
2022/11/11 07:40:10;;;;;;;22.98;10.05;;;;;;;8.04;94.64;100413.72;1762608;80;21460;-46
2022/11/11 07:42:41;;;;;;;17.30;9.08;;;;;;;8.03;94.44;100414.61;1769674;80;21390;-48
2022/11/11 07:45:09;;;;;;;18.50;9.13;;;;;;;7.99;94.38;100424.77;1767614;80;20991;-48
2022/11/11 07:47:35;;;;;;;19.17;9.40;;;;;;;8.01;94.42;100424.73;1771637;80;21011;-44
2022/11/11 07:50:03;;;;;;;18.85;9.58;;;;;;;8.06;94.48;100418.47;1765038;80;20978;-45
2022/11/11 07:52:29;;;;;;;16.73;9.40;;;;;;;8.08;94.47;100404.88;1763133;80;21053;-48
2022/11/11 07:54:55;;;;;;;24.25;9.63;;;;;;;8.17;94.56;100410.78;1765000;80;21166;-45
2022/11/11 07:57:21;;;;;;;23.40;10.48;;;;;;;8.23;94.46;100418.45;1758323;80;20975;-48
2022/11/11 07:59:46;;;;;;;23.47;10.60;;;;;;;8.23;94.23;100419.31;1760053;80;21491;-47
2022/11/11 08:02:13;;;;;;;20.08;9.70;;;;;;;8.30;94.26;100428.33;1774596;80;21568;-46
2022/11/11 08:04:39;;;;;;;17.43;9.83;;;;;;;8.32;93.95;100422.12;1818880;78;20968;-48
2022/11/11 08:07:05;;;;;;;17.67;9.90;;;;;;;8.42;94.05;100424.06;1787590;80;21011;-46
2022/11/11 08:09:31;;;;;;;19.35;10.53;;;;;;;8.47;93.80;100428.73;1802591;79;21029;-49
2022/11/11 08:14:41;;;;;;;23.35;9.53;;;;;;;8.59;93.78;100431.01;1774519;80;21575;-46
2022/11/11 08:17:06;;;;;;;21.07;10.63;;;;;;;8.66;93.30;100436.94;1772157;80;21029;-47
2022/11/11 08:19:32;;;;;;;17.57;9.98;;;;;;;8.72;93.27;100439.38;1760682;80;20998;-48
2022/11/11 08:21:58;;;;;;;18.60;9.65;;;;;;;8.77;92.99;100444.04;1762336;80;20998;-47
2022/11/11 08:24:24;;;;;;;19.73;9.70;;;;;;;8.88;92.90;100442.84;1761113;80;21001;-48
2022/11/11 08:26:50;;;;;;;18.73;8.88;;;;;;;8.90;92.51;100447.16;1767778;80;21049;-46
2022/11/11 08:29:16;;;;;;;21.12;10.10;;;;;;;9.02;92.28;100449.41;1759328;80;21621;-48
2022/11/11 08:31:42;;;;;;;17.60;9.13;;;;;;;9.14;91.94;100440.76;1771648;80;20972;-48
2022/11/11 08:34:07;;;;;;;17.57;9.10;;;;;;;9.19;91.54;100438.39;1762356;80;21109;-47
2022/11/11 08:36:33;;;;;;;17.70;8.78;;;;;;;9.28;91.64;100443.81;1768007;80;21014;-46
2022/11/11 08:38:59;;;;;;;18.87;9.33;;;;;;;9.37;91.24;100443.98;1767523;80;21487;-46
2022/11/11 08:41:25;;;;;;;18.27;8.90;;;;;;;9.44;91.30;100444.19;1765153;80;21006;-48
2022/11/11 08:43:53;;;;;;;23.38;9.25;;;;;;;9.48;90.65;100447.11;1765040;80;21006;-47
2022/11/11 08:46:19;;;;;;;14.93;8.43;;;;;;;9.55;90.49;100453.89;1770313;80;21007;-46
2022/11/11 08:48:45;;;;;;;17.55;8.08;;;;;;;9.63;90.51;100454.94;1767055;80;20999;-47
2022/11/11 08:51:11;;;;;;;15.90;8.28;;;;;;;9.61;89.88;100452.83;1774609;80;21059;-50
2022/11/11 08:53:37;;;;;;;17.85;8.83;;;;;;;9.63;90.05;100452.78;1774492;80;21054;-46
2022/11/11 08:56:03;;;;;;;22.07;8.43;;;;;;;9.67;90.07;100449.13;1759852;80;21002;-48
2022/11/11 08:58:30;;;;;;;19.75;9.13;;;;;;;9.72;89.61;100453.78;1765154;80;21010;-48
2022/11/11 09:00:56;;;;;;;14.25;8.25;;;;;;;9.74;89.29;100454.13;1758390;80;21018;-46
2022/11/11 09:03:22;;;;;;;15.95;8.58;;;;;;;9.80;89.37;100447.37;1763219;80;21641;-44
2022/11/11 09:05:48;;;;;;;17.48;9.35;;;;;;;9.85;88.79;100455.09;1758218;80;21006;-46
2022/11/11 09:08:14;;;;;;;18.50;8.05;;;;;;;9.91;89.25;100453.55;1767922;80;20998;-48
2022/11/11 09:10:40;;;;;;;20.37;8.33;;;;;;;10.00;89.27;100453.70;1766766;80;21007;-48
2022/11/11 09:13:06;;;;;;;17.02;8.58;;;;;;;9.96;88.44;100459.52;1758188;80;21017;-45
2022/11/11 09:15:33;;;;;;;17.77;8.35;;;;;;;10.03;88.55;100468.52;1773210;80;21009;-51
2022/11/11 09:18:00;;;;;;;18.95;8.78;;;;;;;10.03;88.29;100467.20;1768171;80;21114;-48
2022/11/11 09:20:26;;;;;;;16.35;8.55;;;;;;;10.07;88.46;100458.30;1779009;80;21560;-48
2022/11/11 09:22:52;;;;;;;24.98;9.30;;;;;;;10.13;88.73;100451.50;1772244;80;21043;-49
2022/11/11 09:25:19;;;;;;;22.17;8.23;;;;;;;10.16;88.47;100455.34;1762490;80;21038;-49
2022/11/11 09:27:55;;;;;;;15.73;8.37;;;;;;;10.14;88.15;100447.52;1769817;80;21006;-46
2022/11/11 09:30:21;;;;;;;19.32;8.45;;;;;;;10.19;88.03;100442.11;1767789;80;20998;-45
2022/11/11 09:32:46;;;;;;;15.08;8.38;;;;;;;10.27;88.08;100437.42;1771830;80;21491;-47
2022/11/11 09:35:12;;;;;;;17.07;8.30;;;;;;;10.27;87.76;100437.42;1775168;80;20999;-50
2022/11/11 09:37:38;;;;;;;16.12;8.80;;;;;;;10.33;87.79;100437.25;1768756;80;21000;-47
2022/11/11 09:40:05;;;;;;;15.25;7.83;;;;;;;10.33;87.24;100433.31;1772072;80;21007;-44
2022/11/11 09:42:42;;;;;;;13.68;7.78;;;;;;;10.30;86.93;100443.05;1769758;80;21979;-44
2022/11/11 09:45:21;;;;;;;15.28;7.90;;;;;;;10.37;87.52;100438.00;1775669;80;20978;-47
2022/11/11 09:48:08;;;;;;;15.70;7.92;;;;;;;10.44;87.45;100443.87;1755627;80;21006;-44
2022/11/11 09:50:37;;;;;;;13.88;7.80;;;;;;;10.52;87.75;100441.84;1770598;80;21648;-47
2022/11/11 09:53:10;;;;;;;17.02;7.95;;;;;;;10.55;87.53;100435.12;1771849;80;20992;-53
2022/11/11 09:55:48;;;;;;;18.62;7.42;;;;;;;10.62;87.31;100440.56;1768180;80;21046;-47
2022/11/11 09:58:22;;;;;;;16.97;7.55;;;;;;;10.63;86.90;100445.39;1771720;80;21696;-46
2022/11/11 10:00:56;;;;;;;15.03;6.75;;;;;;;10.64;86.80;100438.77;1758009;80;21006;-49
2022/11/11 10:03:24;;;;;;;14.45;6.80;;;;;;;10.66;86.49;100443.50;1769734;80;21120;-44
2022/11/11 10:06:00;;;;;;;15.48;6.87;;;;;;;10.72;86.81;100443.27;1758733;80;21010;-46
2022/11/11 10:08:38;;;;;;;15.45;6.97;;;;;;;10.74;86.99;100436.63;1767906;80;21441;-44
2022/11/11 10:11:07;;;;;;;;;;;;;;;10.73;86.87;100441.05;1768145;80;21010;-50
2022/11/11 10:13:36;;;;;;;15.25;7.65;;;;;;;10.72;86.46;100440.63;1761838;80;20100;-45
2022/11/11 10:16:27;;;;;;;12.45;5.67;;;;;;;10.75;86.31;100430.44;1776756;80;21011;-44
2022/11/11 10:19:25;;;;;;;13.80;6.12;;;;;;;10.72;85.67;100419.59;1763910;80;20986;-46
2022/11/11 10:22:23;;;;;;;12.23;6.10;;;;;;;10.71;86.20;100432.80;1765653;80;20998;-46
2022/11/11 10:24:55;;;;;;;11.33;5.67;;;;;;;10.73;85.65;100429.64;1770249;80;20987;-47
2022/11/11 10:27:22;;;;;;;13.43;5.62;;;;;;;10.67;84.88;100419.36;1774226;80;20994;-49
2022/11/11 10:29:49;;;;;;;12.63;5.40;;;;;;;10.66;85.42;100422.46;1783299;80;21002;-47
2022/11/11 10:32:25;;;;;;;16.17;5.65;;;;;;;10.69;85.46;100419.69;1764355;80;21010;-46
2022/11/11 10:34:51;;;;;;;10.93;5.50;;;;;;;10.69;85.45;100410.48;1769128;80;20999;-44
2022/11/11 10:37:24;;;;;;;18.82;5.50;;;;;;;10.70;85.25;100414.00;1765416;80;21065;-46
2022/11/11 10:40:17;;;;;;;11.65;5.60;;;;;;;10.68;85.39;100423.72;1751818;80;21002;-47
2022/11/11 10:42:44;;;;;;;18.07;5.83;;;;;;;10.69;84.82;100424.95;1768852;80;21531;-49
2022/11/11 10:45:26;;;;;;;14.65;6.00;;;;;;;10.71;85.20;100431.05;1757984;80;21444;-43
2022/11/11 10:47:58;;;;;;;12.88;5.72;;;;;;;10.71;84.61;100436.30;1757959;80;21006;-47
2022/11/11 10:50:34;;;;;;;15.25;5.55;;;;;;;10.72;84.88;100433.20;1767369;80;21015;-43
2022/11/11 10:53:34;;;;;;;16.77;5.58;;;;;;;10.71;84.45;100425.78;1769759;80;21004;-46
2022/11/11 10:56:23;;;;;;;17.32;6.40;;;;;;;10.71;84.73;100430.16;1779255;80;21497;-46
2022/11/11 10:59:14;;;;;;;10.63;5.58;;;;;;;10.74;84.82;100424.80;1760639;80;21480;-43
2022/11/11 11:01:46;;;;;;;11.22;6.00;;;;;;;10.72;84.35;100419.59;1775014;80;21002;-47
2022/11/11 11:04:26;;;;;;;11.00;5.37;;;;;;;10.71;84.03;100415.26;1761509;80;21103;-47
2022/11/11 11:06:54;;;;;;;14.28;5.78;;;;;;;10.77;84.64;100419.42;1771196;80;21006;-44
2022/11/11 11:09:31;;;;;;;11.68;5.97;;;;;;;10.78;84.68;100417.17;1767794;80;21103;-45
2022/11/11 11:12:10;;;;;;;;;;;;;;;10.72;84.42;100415.64;1776977;80;20980;-44
2022/11/11 11:14:41;;;;;;;14.10;6.28;;;;;;;10.69;84.64;100407.85;1808869;79;20113;-49
2022/11/11 11:17:15;;;;;;;11.33;5.25;;;;;;;10.76;84.90;100408.02;1758247;80;20978;-50
2022/11/11 11:19:41;;;;;;;14.18;5.83;;;;;;;10.81;84.14;100405.70;1758360;80;20979;-50
2022/11/11 11:22:06;;;;;;;13.72;5.60;;;;;;;10.80;84.24;100406.59;1761625;80;21010;-48
2022/11/11 11:24:36;;;;;;;16.23;6.20;;;;;;;10.88;84.55;100408.02;1769795;80;20995;-45
2022/11/11 11:27:06;;;;;;;12.85;5.28;;;;;;;10.89;84.22;100407.55;1779544;80;21007;-48
2022/11/11 11:29:38;;;;;;;15.65;5.83;;;;;;;10.89;83.95;100397.88;1769719;80;21025;-46
2022/11/11 11:32:22;;;;;;;11.80;5.17;;;;;;;10.92;83.83;100390.34;1768349;80;21003;-45
2022/11/11 11:34:52;;;;;;;14.10;6.17;;;;;;;10.90;83.60;100388.23;1764344;80;21059;-47
2022/11/11 11:37:21;;;;;;;11.35;5.85;;;;;;;10.98;83.72;100387.45;1774347;80;21597;-46
2022/11/11 11:39:48;;;;;;;13.18;5.90;;;;;;;11.04;84.00;100375.39;1777520;80;21038;-45
2022/11/11 11:42:34;;;;;;;11.73;6.45;;;;;;;11.02;83.50;100371.08;1759720;80;21484;-44
2022/11/11 11:45:28;;;;;;;12.82;5.72;;;;;;;11.07;83.88;100377.03;1767975;80;21007;-45
2022/11/11 11:48:19;;;;;;;14.40;5.40;;;;;;;11.11;83.35;100380.81;1769576;80;21461;-46
2022/11/11 11:50:51;;;;;;;14.23;5.42;;;;;;;11.03;82.85;100374.98;1775663;80;21507;-47
2022/11/11 11:53:40;;;;;;;16.20;6.08;;;;;;;11.04;83.08;100370.56;1796738;79;20999;-45
2022/11/11 11:56:28;;;;;;;17.85;5.83;;;;;;;11.02;83.06;100357.45;1787634;80;20993;-46
2022/11/11 11:59:02;;;;;;;15.50;5.62;;;;;;;10.98;82.94;100360.28;1797621;79;20987;-44
2022/11/11 12:02:06;;;;;;;12.78;5.35;;;;;;;11.01;83.26;100364.12;1768289;80;21459;-47
2022/11/11 12:05:07;;;;;;;11.80;5.55;;;;;;;10.90;82.59;100367.18;1732699;81;21014;-45
2022/11/11 12:07:56;;;;;;;13.25;5.87;;;;;;;10.91;83.05;100372.39;1760808;80;20982;-44
2022/11/11 12:10:42;;;;;;;12.18;5.67;;;;;;;10.92;83.21;100374.55;1764731;80;21408;-45
2022/11/11 12:13:28;;;;;;;19.02;6.67;;;;;;;10.87;82.92;100365.98;1786986;80;21547;-46
2022/11/11 12:16:19;;;;;;;12.00;6.12;;;;;;;10.87;83.30;100372.55;1780223;80;20980;-44
2022/11/11 12:19:28;;;;;;;13.08;5.20;;;;;;;10.88;83.40;100365.92;1735541;81;20994;-45
2022/11/11 12:22:14;;;;;;;12.13;6.25;;;;;;;10.85;83.05;100358.60;1716152;81;21005;-46
2022/11/11 12:24:48;;;;;;;10.70;5.85;;;;;;;10.87;83.30;100363.34;1753377;81;21100;-44
2022/11/11 12:27:38;;;;;;;14.98;6.17;;;;;;;10.87;83.38;100369.45;1755193;82;21011;-46
2022/11/11 12:30:11;;;;;;;15.53;6.12;;;;;;;10.74;82.88;100375.66;1740696;81;20991;-45
2022/11/11 12:32:59;;;;;;;14.93;6.28;;;;;;;10.80;83.29;100375.87;1749606;81;21824;-44
2022/11/11 12:35:59;;;;;;;13.03;6.10;;;;;;;10.79;83.22;100372.86;1697389;84;21057;-46
2022/11/11 12:38:55;;;;;;;9.90;5.75;;;;;;;10.83;83.44;100364.39;1717650;81;20991;-44
2022/11/11 12:41:39;;;;;;;13.18;5.67;;;;;;;10.84;83.26;100366.08;1742806;81;21040;-45
2022/11/11 12:44:11;;;;;;;11.88;5.35;;;;;;;10.82;83.23;100364.82;1747313;81;21540;-47
2022/11/11 12:47:18;;;;;;;12.00;5.62;;;;;;;10.86;83.23;100374.77;1753967;81;21030;-47
2022/11/11 12:50:09;;;;;;;10.68;5.28;;;;;;;10.89;83.38;100367.61;1749183;81;21496;-49